Time;durP1;ratioP1;P1;durP2;ratioP2;P2;SDS_P1;SDS_P2;PMS_P1;PMS_P2;Temp;Humidity;BMP_temperature;BMP_pressure;BME280_temperature;BME280_humidity;BME280_pressure;Samples;Min_cycle;Max_cycle;Signal;HPM_P1;HPM_P2
2022/10/23 00:01:36;;;;;;;20.35;8.85;;;11.70;99.90;;;;;;5121129;28;20094;-76
2022/10/23 00:04:18;;;;;;;18.13;9.27;;;11.50;99.90;;;;;;5116403;28;20237;-76
2022/10/23 00:06:47;;;;;;;15.60;8.77;;;11.70;99.90;;;;;;5119107;28;20046;-76
2022/10/23 00:09:46;;;;;;;15.55;8.55;;;11.70;99.90;;;;;;5121407;28;20320;-75
2022/10/23 00:12:37;;;;;;;19.67;9.02;;;10.00;99.90;;;;;;5114948;27;20066;-77
2022/10/23 00:15:12;;;;;;;16.33;8.45;;;11.60;99.90;;;;;;5091995;28;20080;-76
2022/10/23 00:17:40;;;;;;;15.52;9.15;;;11.70;99.90;;;;;;5109897;27;20040;-76
2022/10/23 00:20:07;;;;;;;22.20;9.55;;;11.60;99.90;;;;;;5116595;28;20338;-77
2022/10/23 00:22:33;;;;;;;18.67;9.57;;;12.00;99.90;;;;;;5105605;28;20119;-76
2022/10/23 00:25:10;;;;;;;17.95;8.77;;;11.50;99.90;;;;;;5109410;28;20031;-77
2022/10/23 00:27:36;;;;;;;20.77;9.82;;;12.10;99.90;;;;;;5111549;28;20059;-76
2022/10/23 00:30:05;;;;;;;22.15;10.10;;;9.90;99.90;;;;;;5111804;28;20435;-76
2022/10/23 00:32:31;;;;;;;16.85;9.45;;;11.50;99.90;;;;;;5099732;27;20062;-78
2022/10/23 00:34:59;;;;;;;20.48;11.10;;;11.90;99.90;;;;;;5112106;28;20035;-78
2022/10/23 00:37:25;;;;;;;23.35;9.70;;;11.60;99.90;;;;;;5125552;27;20312;-79
2022/10/23 00:39:53;;;;;;;20.65;11.55;;;11.80;99.90;;;;;;5130963;27;20064;-79
2022/10/23 00:42:20;;;;;;;25.58;12.90;;;11.40;99.90;;;;;;5100081;27;20107;-78
2022/10/23 00:44:49;;;;;;;32.15;17.05;;;11.70;99.90;;;;;;5105091;28;20351;-78
2022/10/23 00:47:41;;;;;;;29.45;16.08;;;11.60;99.90;;;;;;5119020;27;20588;-77
2022/10/23 00:50:07;;;;;;;24.65;13.98;;;11.70;99.90;;;;;;5129429;27;20081;-76
2022/10/23 00:52:37;;;;;;;23.52;13.57;;;11.40;99.90;;;;;;5108151;27;20043;-79
2022/10/23 00:55:03;;;;;;;22.25;13.48;;;11.50;99.90;;;;;;5122919;27;20085;-76
2022/10/23 00:57:29;;;;;;;21.85;13.35;;;11.40;99.90;;;;;;5089658;28;20238;-78
2022/10/23 00:59:55;;;;;;;21.58;13.40;;;11.60;99.90;;;;;;5126259;27;20032;-75
2022/10/23 01:03:04;;;;;;;26.92;12.55;;;11.40;99.90;;;;;;5114355;28;20114;-77
2022/10/23 01:06:09;;;;;;;23.33;12.48;;;11.30;99.90;;;;;;5122787;28;20263;-77
2022/10/23 01:08:46;;;;;;;22.15;13.32;;;11.80;99.90;;;;;;5114147;27;20042;-77
2022/10/23 01:19:32;;;;;;;21.70;12.10;;;12.80;99.90;;;;;;4939093;29;20039;-77
2022/10/23 01:22:37;;;;;;;24.80;13.13;;;11.50;99.90;;;;;;4915887;28;20051;-77
2022/10/23 01:25:45;;;;;;;24.13;13.32;;;11.90;99.90;;;;;;4994198;28;20077;-76
2022/10/23 01:32:17;;;;;;;18.90;12.63;;;11.70;99.90;;;;;;5028503;28;20041;-78
2022/10/23 01:34:54;;;;;;;23.13;11.68;;;11.70;99.90;;;;;;5039604;28;20036;-77
2022/10/23 01:37:26;;;;;;;20.15;13.38;;;11.80;99.90;;;;;;5026332;28;20308;-75
2022/10/23 01:39:56;;;;;;;22.58;12.52;;;11.40;99.90;;;;;;5098710;28;20052;-76
2022/10/23 01:42:52;;;;;;;19.08;13.35;;;11.40;99.90;;;;;;5105329;27;20252;-75
2022/10/23 01:45:25;;;;;;;22.60;12.85;;;9.60;99.90;;;;;;5105628;27;20046;-77
2022/10/23 01:47:53;;;;;;;20.52;13.32;;;11.90;99.90;;;;;;5109179;27;20317;-77
2022/10/23 01:50:22;;;;;;;26.55;13.90;;;11.60;99.90;;;;;;5125348;27;20035;-76
2022/10/23 01:52:48;;;;;;;24.30;13.52;;;11.40;99.90;;;;;;5109182;28;20019;-76
2022/10/23 01:55:14;;;;;;;17.48;12.93;;;11.50;99.90;;;;;;5112288;27;20030;-77
2022/10/23 01:58:01;;;;;;;25.30;13.85;;;11.70;99.90;;;;;;5135208;27;20059;-77
2022/10/23 02:00:35;;;;;;;21.48;14.45;;;11.80;99.90;;;;;;5153671;27;20038;-77
2022/10/23 02:03:03;;;;;;;25.65;14.85;;;11.50;99.90;;;;;;5112207;27;20055;-77
2022/10/23 02:05:35;;;;;;;19.13;13.15;;;11.80;99.90;;;;;;5080783;28;20344;-76
2022/10/23 02:08:03;;;;;;;19.95;13.13;;;11.30;99.90;;;;;;5105622;27;20056;-77
2022/10/23 02:11:12;;;;;;;18.88;13.43;;;11.50;99.90;;;;;;5124187;27;20204;-77
2022/10/23 02:13:54;;;;;;;19.08;12.88;;;11.30;99.90;;;;;;5105923;28;20070;-75
2022/10/23 02:16:35;;;;;;;26.13;13.52;;;11.60;99.90;;;;;;5122374;27;20038;-77
2022/10/23 02:19:20;;;;;;;19.15;13.07;;;11.40;99.90;;;;;;5130933;27;20031;-76
2022/10/23 02:21:55;;;;;;;18.55;12.90;;;11.60;99.90;;;;;;5112198;28;20127;-76
2022/10/23 02:24:38;;;;;;;19.55;13.40;;;11.40;99.90;;;;;;5106927;27;20035;-76
2022/10/23 02:27:11;;;;;;;23.83;13.60;;;11.10;99.90;;;;;;5129686;27;20188;-77
2022/10/23 02:29:43;;;;;;;17.98;14.05;;;11.50;99.90;;;;;;5104416;27;20117;-76
2022/10/23 02:32:10;;;;;;;20.50;13.73;;;11.40;99.90;;;;;;5107763;28;20097;-77
2022/10/23 02:34:36;;;;;;;21.85;13.30;;;11.30;99.90;;;;;;5115287;27;20516;-76
2022/10/23 02:37:02;;;;;;;19.50;13.90;;;11.30;99.90;;;;;;5107323;28;20031;-77
2022/10/23 02:39:56;;;;;;;25.10;14.23;;;11.20;99.90;;;;;;5131297;27;20037;-77
2022/10/23 02:42:32;;;;;;;21.70;14.43;;;11.40;99.90;;;;;;5101219;27;20053;-77
2022/10/23 02:45:14;;;;;;;29.02;15.70;;;11.40;99.90;;;;;;5125227;27;20063;-77
2022/10/23 02:48:04;;;;;;;18.67;14.00;;;11.40;99.90;;;;;;5108176;28;20059;-77
2022/10/23 02:50:57;;;;;;;30.42;16.92;;;12.00;99.90;;;;;;5120745;27;20389;-77
2022/10/23 02:53:56;;;;;;;24.80;15.98;;;11.00;99.90;;;;;;5132642;27;20078;-77
2022/10/23 02:56:40;;;;;;;21.10;14.40;;;11.30;99.90;;;;;;5126995;27;20309;-78
2022/10/23 02:59:20;;;;;;;22.77;15.85;;;11.10;99.90;;;;;;5123539;27;20035;-78
2022/10/23 03:02:15;;;;;;;28.00;16.25;;;12.10;99.90;;;;;;5116049;27;20043;-77
2022/10/23 03:04:51;;;;;;;26.73;15.50;;;11.10;99.90;;;;;;5088767;27;20103;-77
2022/10/23 03:07:18;;;;;;;26.20;16.58;;;10.80;99.90;;;;;;5107143;27;20323;-77
2022/10/23 03:09:44;;;;;;;23.85;16.23;;;11.10;99.90;;;;;;5105032;28;20039;-75
2022/10/23 03:12:12;;;;;;;25.65;16.60;;;11.40;99.90;;;;;;5092483;27;20027;-75
2022/10/23 03:14:37;;;;;;;26.42;16.10;;;11.10;99.90;;;;;;5137147;27;20076;-75
2022/10/23 03:17:04;;;;;;;29.08;17.38;;;11.10;99.90;;;;;;5135540;27;20039;-77
2022/10/23 03:19:29;;;;;;;29.27;17.63;;;11.30;99.90;;;;;;5103572;27;20042;-76
2022/10/23 03:21:55;;;;;;;22.00;16.17;;;11.20;99.90;;;;;;5084335;28;20206;-77
2022/10/23 03:24:20;;;;;;;30.40;17.58;;;11.40;99.90;;;;;;5106271;27;20217;-75
2022/10/23 03:26:49;;;;;;;27.25;17.35;;;11.40;99.90;;;;;;5129095;27;20028;-77
2022/10/23 03:29:15;;;;;;;27.10;16.58;;;11.50;99.90;;;;;;5098910;28;20028;-76
2022/10/23 03:31:41;;;;;;;26.55;17.95;;;11.30;99.90;;;;;;5101997;28;20035;-75
2022/10/23 03:34:10;;;;;;;22.60;16.08;;;11.60;99.90;;;;;;5111576;28;20074;-75
2022/10/23 03:36:36;;;;;;;26.95;17.10;;;11.10;99.90;;;;;;5095731;28;20039;-76
2022/10/23 03:39:03;;;;;;;28.65;16.75;;;11.50;99.90;;;;;;5135556;27;20040;-76
2022/10/23 03:41:29;;;;;;;23.50;16.27;;;11.20;99.90;;;;;;5107722;28;20027;-76
2022/10/23 03:43:55;;;;;;;23.73;16.30;;;11.40;99.90;;;;;;5103621;28;20341;-76
2022/10/23 03:46:21;;;;;;;21.75;15.60;;;11.60;99.90;;;;;;5123592;28;20103;-76
2022/10/23 03:49:43;;;;;;;23.98;15.35;;;11.50;99.90;;;;;;5099551;28;20067;-76
2022/10/23 03:52:09;;;;;;;19.67;14.38;;;13.20;99.90;;;;;;5056615;28;20080;-76
2022/10/23 03:54:37;;;;;;;22.13;15.05;;;11.50;99.90;;;;;;5105901;28;20034;-77
2022/10/23 03:57:05;;;;;;;23.25;15.68;;;11.20;99.90;;;;;;5124739;27;20029;-77
2022/10/23 03:59:31;;;;;;;26.23;15.25;;;11.40;99.90;;;;;;5103912;27;20103;-76
2022/10/23 04:01:56;;;;;;;29.27;15.40;;;11.50;99.90;;;;;;5132999;27;20418;-77
2022/10/23 04:04:22;;;;;;;23.40;15.13;;;11.40;99.90;;;;;;5098772;28;20036;-76
2022/10/23 04:06:48;;;;;;;26.10;16.70;;;11.30;99.90;;;;;;5102817;27;20039;-76
2022/10/23 04:09:13;;;;;;;23.13;15.27;;;11.20;99.90;;;;;;5111844;27;20031;-77
2022/10/23 04:11:39;;;;;;;23.45;15.13;;;11.10;99.90;;;;;;5141946;27;20047;-75
2022/10/23 04:14:28;;;;;;;23.10;14.88;;;11.10;99.90;;;;;;5128478;27;20034;-77
2022/10/23 04:17:14;;;;;;;22.15;14.77;;;11.10;99.90;;;;;;5139898;27;20042;-77
2022/10/23 04:19:55;;;;;;;22.40;15.23;;;11.20;99.90;;;;;;5128456;28;20027;-76
2022/10/23 04:22:26;;;;;;;24.55;14.85;;;11.10;99.90;;;;;;5126501;27;20035;-78
2022/10/23 04:24:52;;;;;;;25.35;15.93;;;11.10;99.90;;;;;;5117797;28;20119;-77
2022/10/23 04:27:57;;;;;;;20.55;14.85;;;11.00;99.90;;;;;;5122783;27;20355;-78
2022/10/23 04:30:33;;;;;;;26.77;15.52;;;10.00;99.90;;;;;;5115700;27;20210;-77
2022/10/23 04:34:43;;;;;;;23.30;15.10;;;11.30;99.90;;;;;;5136607;27;20034;-77
2022/10/23 04:37:01;;;;;;;28.20;15.75;;;9.80;99.90;;;;;;5096546;27;20088;-76
2022/10/23 04:39:27;;;;;;;23.15;15.80;;;11.40;99.90;;;;;;5106745;27;20036;-75
2022/10/23 04:41:52;;;;;;;21.98;14.98;;;11.50;99.90;;;;;;5109470;27;20099;-77
2022/10/23 04:44:21;;;;;;;22.13;15.30;;;11.40;99.90;;;;;;5103107;28;20044;-77
2022/10/23 04:46:47;;;;;;;25.98;15.52;;;10.90;99.90;;;;;;5093152;27;20058;-76
2022/10/23 04:49:13;;;;;;;20.30;15.32;;;11.20;99.90;;;;;;5139778;27;20043;-75
2022/10/23 04:51:47;;;;;;;25.77;15.90;;;10.90;99.90;;;;;;5103375;27;20314;-77
2022/10/23 04:55:26;;;;;;;21.05;15.60;;;11.00;99.90;;;;;;5112510;27;20156;-76
2022/10/23 04:57:52;;;;;;;28.63;17.35;;;11.30;99.90;;;;;;5113527;27;20115;-77
2022/10/23 05:00:18;;;;;;;23.25;16.00;;;11.20;99.90;;;;;;5122163;27;20031;-76
2022/10/23 05:02:43;;;;;;;22.25;15.48;;;10.90;99.90;;;;;;5120693;27;20082;-77
2022/10/23 05:05:09;;;;;;;23.45;15.48;;;11.10;99.90;;;;;;5108723;27;20034;-77
2022/10/23 05:07:36;;;;;;;20.90;15.00;;;11.20;99.90;;;;;;5113718;28;20034;-76
2022/10/23 05:10:10;;;;;;;19.17;13.90;;;11.20;99.90;;;;;;5132434;27;20054;-78
2022/10/23 05:12:36;;;;;;;;;;;12.50;99.90;;;;;;5118666;27;20207;-79
2022/10/23 05:15:02;;;;;;;18.63;13.52;;;10.80;99.90;;;;;;5113628;27;19930;-77
2022/10/23 05:17:43;;;;;;;22.02;14.60;;;11.20;99.90;;;;;;5127950;27;20371;-77
2022/10/23 05:20:13;;;;;;;24.33;15.68;;;11.00;99.90;;;;;;5131556;27;20065;-76
2022/10/23 05:22:47;;;;;;;26.52;16.48;;;10.90;99.90;;;;;;5113545;27;20364;-76
2022/10/23 05:25:13;;;;;;;23.70;15.60;;;11.30;99.90;;;;;;5116492;27;20088;-75
2022/10/23 05:27:39;;;;;;;32.42;15.88;;;11.30;99.90;;;;;;5118119;27;20092;-75
2022/10/23 05:31:05;;;;;;;;;;;;;;;;;;;;;
2022/10/23 05:33:35;;;;;;;;;;;11.10;99.90;;;;;;5111359;27;20050;-73
2022/10/23 05:36:55;;;;;;;21.67;15.40;;;11.30;99.90;;;;;;5112034;27;19919;-77
2022/10/23 05:39:23;;;;;;;23.95;15.38;;;11.90;99.90;;;;;;5121661;27;20051;-74
2022/10/23 05:41:50;;;;;;;22.75;15.32;;;11.40;99.90;;;;;;5118274;28;20031;-76
2022/10/23 05:44:15;;;;;;;24.70;15.95;;;11.30;99.90;;;;;;5130894;27;20092;-75
2022/10/23 05:46:41;;;;;;;22.17;14.77;;;13.80;99.90;;;;;;5116513;28;20052;-74
2022/10/23 05:49:26;;;;;;;23.45;14.73;;;11.10;99.90;;;;;;5122403;28;20084;-76
2022/10/23 05:51:52;;;;;;;23.35;14.27;;;11.50;99.90;;;;;;5105349;28;20032;-75
2022/10/23 05:54:17;;;;;;;19.50;15.40;;;11.40;99.90;;;;;;5105421;28;20039;-77
2022/10/23 05:56:43;;;;;;;20.80;14.23;;;11.00;99.90;;;;;;5121174;27;20035;-76
2022/10/23 05:59:11;;;;;;;19.88;12.68;;;10.50;99.90;;;;;;5123742;27;20063;-78
2022/10/23 06:01:48;;;;;;;28.33;15.30;;;11.40;99.90;;;;;;5095481;27;20035;-74
2022/10/23 06:04:23;;;;;;;20.80;13.82;;;11.00;99.90;;;;;;5089295;28;20032;-75
2022/10/23 06:06:48;;;;;;;15.30;10.55;;;11.00;99.90;;;;;;5110567;28;20083;-76
2022/10/23 06:09:15;;;;;;;20.10;13.63;;;11.60;99.90;;;;;;5106314;28;20036;-75
2022/10/23 06:11:41;;;;;;;18.08;14.10;;;11.60;99.90;;;;;;5106266;28;20326;-76
2022/10/23 06:14:17;;;;;;;20.92;13.98;;;11.20;99.90;;;;;;5119207;27;20431;-77
2022/10/23 06:16:42;;;;;;;20.13;15.18;;;11.20;99.90;;;;;;5124249;27;20051;-77
2022/10/23 06:19:12;;;;;;;20.70;14.38;;;11.10;99.90;;;;;;5114045;27;20046;-77
2022/10/23 06:21:38;;;;;;;23.80;14.25;;;11.40;99.90;;;;;;5119267;27;20043;-78
2022/10/23 06:24:06;;;;;;;23.38;14.82;;;11.10;99.90;;;;;;5121765;27;20071;-77
2022/10/23 06:26:31;;;;;;;19.13;13.38;;;11.00;99.90;;;;;;5131858;27;20035;-78
2022/10/23 06:29:03;;;;;;;18.52;13.68;;;11.00;99.90;;;;;;5107728;27;20031;-78
2022/10/23 06:31:31;;;;;;;21.88;13.63;;;10.90;99.90;;;;;;5127249;27;20278;-79
2022/10/23 06:33:58;;;;;;;20.65;13.00;;;11.30;99.90;;;;;;5090667;28;20043;-77
2022/10/23 06:36:26;;;;;;;17.20;13.00;;;10.90;99.90;;;;;;5107240;27;20105;-75
2022/10/23 06:38:52;;;;;;;19.77;12.77;;;11.00;99.90;;;;;;5107883;27;20037;-77
2022/10/23 06:41:20;;;;;;;18.92;13.32;;;11.30;99.90;;;;;;5084146;28;20371;-75
2022/10/23 06:43:50;;;;;;;19.50;13.30;;;11.20;99.90;;;;;;5127502;27;20111;-75
2022/10/23 06:46:17;;;;;;;23.23;13.75;;;11.30;99.90;;;;;;5107489;27;20051;-76
2022/10/23 06:48:54;;;;;;;21.50;14.40;;;11.10;99.90;;;;;;5121521;27;20044;-78
2022/10/23 06:51:50;;;;;;;23.90;13.85;;;11.40;99.90;;;;;;5125152;27;20035;-77
2022/10/23 06:54:16;;;;;;;18.20;13.38;;;11.00;99.90;;;;;;5104038;28;20056;-77
2022/10/23 06:57:11;;;;;;;21.85;14.50;;;11.20;99.90;;;;;;5105042;28;20027;-78
2022/10/23 06:59:37;;;;;;;19.77;13.68;;;11.20;99.90;;;;;;5120857;28;20039;-76
2022/10/23 07:02:02;;;;;;;17.40;12.82;;;11.30;99.90;;;;;;5097805;27;20035;-75
2022/10/23 07:04:28;;;;;;;21.77;14.38;;;11.20;99.90;;;;;;5100963;27;20039;-78
2022/10/23 07:06:56;;;;;;;17.83;11.88;;;11.20;99.90;;;;;;5103694;27;20536;-76
2022/10/23 07:09:22;;;;;;;18.38;11.93;;;11.60;99.90;;;;;;5140992;27;20094;-75
2022/10/23 07:11:47;;;;;;;20.80;14.20;;;11.60;99.90;;;;;;5133348;27;20031;-76
2022/10/23 07:14:13;;;;;;;22.95;14.23;;;11.40;99.90;;;;;;5104535;28;20203;-75
2022/10/23 07:16:42;;;;;;;23.50;15.13;;;11.80;99.90;;;;;;5120133;28;20031;-75
2022/10/23 07:19:08;;;;;;;19.95;12.52;;;11.30;99.90;;;;;;5122237;27;20081;-78
2022/10/23 07:21:34;;;;;;;20.45;13.27;;;11.50;99.90;;;;;;5125779;27;20405;-78
2022/10/23 07:24:02;;;;;;;24.38;14.73;;;11.40;99.90;;;;;;5130422;27;20035;-77
2022/10/23 07:26:28;;;;;;;22.67;14.10;;;11.80;99.90;;;;;;5104469;27;20053;-77
2022/10/23 07:28:54;;;;;;;23.02;14.52;;;11.40;99.90;;;;;;5111863;28;20032;-77
2022/10/23 07:31:28;;;;;;;19.08;12.43;;;12.00;99.90;;;;;;5120963;28;20031;-76
2022/10/23 07:33:54;;;;;;;18.55;13.73;;;11.80;99.90;;;;;;5115712;28;20027;-75
2022/10/23 07:36:19;;;;;;;22.13;13.70;;;11.50;99.90;;;;;;5109989;28;20107;-76
2022/10/23 07:38:45;;;;;;;22.00;13.43;;;12.00;99.90;;;;;;5126573;27;20043;-77
2022/10/23 07:41:23;;;;;;;18.90;13.27;;;11.90;99.90;;;;;;5133834;27;20023;-76
2022/10/23 07:43:48;;;;;;;20.05;13.15;;;12.00;99.90;;;;;;5120565;28;20107;-76
2022/10/23 07:46:14;;;;;;;21.20;13.10;;;12.10;99.90;;;;;;5120148;28;20254;-75
2022/10/23 07:48:40;;;;;;;17.85;11.27;;;12.20;99.90;;;;;;5086045;28;20039;-78
2022/10/23 07:51:09;;;;;;;18.70;13.40;;;11.80;99.90;;;;;;5102716;28;20194;-77
2022/10/23 07:53:36;;;;;;;22.35;12.38;;;12.30;99.90;;;;;;5120579;28;20024;-75
2022/10/23 07:56:10;;;;;;;19.52;13.63;;;12.20;99.90;;;;;;5119957;28;20031;-77
2022/10/23 07:58:36;;;;;;;15.73;10.73;;;11.80;99.90;;;;;;5118312;28;20023;-76
2022/10/23 08:01:10;;;;;;;18.23;13.50;;;12.30;99.90;;;;;;5119897;28;20267;-78
2022/10/23 08:03:38;;;;;;;23.17;13.40;;;12.00;99.90;;;;;;5108342;28;20078;-77
2022/10/23 08:06:06;;;;;;;17.23;12.25;;;12.40;99.90;;;;;;5086193;28;20072;-77
2022/10/23 08:08:32;;;;;;;20.60;12.75;;;12.40;99.90;;;;;;5113261;28;20410;-75
2022/10/23 08:10:58;;;;;;;20.85;12.95;;;12.00;99.90;;;;;;5110798;28;20028;-75
2022/10/23 08:13:23;;;;;;;18.70;12.27;;;12.40;99.90;;;;;;5125838;27;20059;-78
2022/10/23 08:15:51;;;;;;;15.35;11.93;;;12.70;99.90;;;;;;5145129;27;20020;-75
2022/10/23 08:18:17;;;;;;;18.52;13.25;;;12.50;99.90;;;;;;5103766;28;20099;-79
2022/10/23 08:20:46;;;;;;;21.08;13.00;;;12.50;99.90;;;;;;5117828;27;20019;-74
2022/10/23 08:23:13;;;;;;;18.88;12.25;;;12.20;99.90;;;;;;5117634;28;20090;-76
2022/10/23 08:25:39;;;;;;;21.30;13.15;;;12.30;99.90;;;;;;5132123;27;20100;-76
2022/10/23 08:28:06;;;;;;;18.80;11.90;;;12.30;99.90;;;;;;5133774;27;20090;-74
2022/10/23 08:30:48;;;;;;;18.67;11.73;;;12.30;99.90;;;;;;5127051;27;20058;-76
2022/10/23 08:33:14;;;;;;;18.35;11.20;;;12.40;99.90;;;;;;5135732;27;20284;-74
2022/10/23 08:35:42;;;;;;;19.35;11.85;;;12.60;99.90;;;;;;5108967;27;20054;-74
2022/10/23 08:38:09;;;;;;;17.83;12.70;;;13.00;99.90;;;;;;5123928;27;20023;-75
2022/10/23 08:40:35;;;;;;;16.20;11.50;;;12.60;99.90;;;;;;5138831;27;20101;-77
2022/10/23 08:43:33;;;;;;;17.67;11.60;;;12.60;99.90;;;;;;5136249;27;20039;-77
2022/10/23 08:46:10;;;;;;;13.85;10.45;;;12.60;99.90;;;;;;5101961;27;20063;-75
2022/10/23 08:49:16;;;;;;;17.70;10.93;;;13.40;99.90;;;;;;5105317;27;20326;-75
2022/10/23 08:51:49;;;;;;;16.92;10.70;;;13.60;99.90;;;;;;5139986;27;20074;-76
2022/10/23 08:57:44;;;;;;;17.65;10.15;;;13.40;99.90;;;;;;5117525;27;20164;-78
2022/10/23 09:00:15;;;;;;;13.73;10.60;;;13.60;99.90;;;;;;5106107;27;20038;-77
2022/10/23 09:02:48;;;;;;;15.15;10.80;;;13.40;99.90;;;;;;5121636;28;20088;-76
2022/10/23 09:05:34;;;;;;;17.35;10.65;;;13.60;99.90;;;;;;5105571;28;20047;-77
2022/10/23 09:08:10;;;;;;;16.17;10.30;;;13.10;99.90;;;;;;5116752;27;20225;-79
2022/10/23 09:11:01;;;;;;;17.13;11.13;;;13.50;99.90;;;;;;5108479;28;20039;-76
2022/10/23 09:14:04;;;;;;;20.95;10.43;;;13.80;99.90;;;;;;5106583;28;20024;-77
2022/10/23 09:16:49;;;;;;;18.90;12.02;;;13.40;99.90;;;;;;5122549;28;20038;-79
2022/10/23 09:19:25;;;;;;;19.38;10.23;;;14.10;99.90;;;;;;5105607;27;20567;-76
2022/10/23 09:21:51;;;;;;;13.70;9.93;;;13.50;99.90;;;;;;5109378;27;20058;-77
2022/10/23 09:24:20;;;;;;;15.63;10.85;;;13.90;99.90;;;;;;5118030;28;20088;-78
2022/10/23 09:26:49;;;;;;;12.55;9.23;;;13.90;99.90;;;;;;5121811;28;20317;-77
2022/10/23 09:29:17;;;;;;;16.85;10.18;;;14.30;99.90;;;;;;5121192;28;20078;-74
2022/10/23 09:31:51;;;;;;;15.05;10.10;;;13.90;99.90;;;;;;5114084;27;20042;-77
2022/10/23 09:34:29;;;;;;;12.82;9.35;;;13.90;99.90;;;;;;5116722;27;20023;-76
2022/10/23 09:37:16;;;;;;;12.77;9.30;;;14.50;99.90;;;;;;5108598;28;20105;-77
2022/10/23 09:39:45;;;;;;;15.35;9.82;;;14.10;99.90;;;;;;5125434;27;20052;-75
2022/10/23 09:42:23;;;;;;;13.32;10.50;;;14.20;99.90;;;;;;5134336;27;20062;-76
2022/10/23 09:45:01;;;;;;;15.90;10.15;;;14.20;99.90;;;;;;5126390;27;20043;-75
2022/10/23 09:48:19;;;;;;;17.08;10.05;;;14.20;99.90;;;;;;5102579;28;20060;-75
2022/10/23 09:50:57;;;;;;;14.45;9.20;;;15.10;99.90;;;;;;5125520;27;20039;-74
2022/10/23 09:53:25;;;;;;;;;;;15.00;99.90;;;;;;5123138;27;20097;-75
2022/10/23 09:56:21;;;;;;;16.00;11.00;;;14.50;99.90;;;;;;5116800;27;19950;-77
2022/10/23 09:58:59;;;;;;;13.27;9.05;;;14.70;99.90;;;;;;5103590;28;20372;-75
2022/10/23 10:01:32;;;;;;;10.05;9.00;;;14.80;99.90;;;;;;5112021;27;20039;-75
2022/10/23 10:03:58;;;;;;;11.73;8.48;;;14.90;99.90;;;;;;5115693;27;20098;-77
2022/10/23 10:06:39;;;;;;;12.63;8.73;;;14.80;99.90;;;;;;5155119;27;20039;-76
2022/10/23 10:09:17;;;;;;;15.18;8.80;;;14.70;99.90;;;;;;5103607;28;20054;-77
2022/10/23 10:11:53;;;;;;;9.02;6.82;;;15.00;99.90;;;;;;5103906;27;20041;-76
2022/10/23 10:14:56;;;;;;;16.10;7.53;;;14.80;99.90;;;;;;5121391;28;20237;-75
2022/10/23 10:17:55;;;;;;;7.43;6.05;;;14.60;99.90;;;;;;5107972;28;20051;-74
2022/10/23 10:20:37;;;;;;;9.10;7.90;;;14.70;99.90;;;;;;5103973;28;20050;-74
2022/10/23 10:23:26;;;;;;;13.05;7.07;;;15.00;99.90;;;;;;5103348;28;20045;-75
2022/10/23 10:26:19;;;;;;;12.20;7.57;;;14.80;99.90;;;;;;5120924;28;20035;-77
2022/10/23 10:29:30;;;;;;;9.73;6.38;;;14.90;99.90;;;;;;5130325;27;20027;-76
2022/10/23 10:32:06;;;;;;;11.50;7.75;;;14.80;99.90;;;;;;5089593;28;20032;-76
2022/10/23 10:35:01;;;;;;;13.77;7.30;;;14.90;99.90;;;;;;5129921;27;20322;-75
2022/10/23 10:37:54;;;;;;;9.73;6.38;;;15.30;99.90;;;;;;5156838;27;20031;-78
2022/10/23 10:40:44;;;;;;;8.25;6.40;;;15.30;99.90;;;;;;5103443;28;20031;-76
2022/10/23 10:43:37;;;;;;;8.90;6.97;;;15.30;99.90;;;;;;5119911;27;20039;-75
2022/10/23 10:46:32;;;;;;;11.05;7.78;;;15.10;99.90;;;;;;5102726;28;20111;-77
2022/10/23 10:49:06;;;;;;;7.60;6.32;;;15.20;99.90;;;;;;5126427;27;20092;-74
2022/10/23 10:51:58;;;;;;;9.68;7.20;;;15.30;99.90;;;;;;5140816;27;20114;-75
2022/10/23 10:54:46;;;;;;;9.43;6.70;;;15.50;99.90;;;;;;5105101;27;20068;-77
2022/10/23 10:57:30;;;;;;;10.18;7.00;;;16.60;99.90;;;;;;5102458;28;20039;-75
2022/10/23 11:00:01;;;;;;;12.25;6.90;;;15.40;99.90;;;;;;5102433;28;20031;-75
2022/10/23 11:03:03;;;;;;;9.85;6.50;;;15.60;99.90;;;;;;5102501;28;20027;-75
2022/10/23 11:05:30;;;;;;;11.68;7.03;;;15.60;99.90;;;;;;5114334;27;20217;-77
2022/10/23 11:08:19;;;;;;;10.60;6.43;;;15.50;99.90;;;;;;5143299;27;20019;-77
2022/10/23 11:10:52;;;;;;;7.75;6.30;;;15.50;99.90;;;;;;5102656;28;20039;-77
2022/10/23 11:13:31;;;;;;;8.57;5.93;;;15.50;99.90;;;;;;5117197;27;20035;-76
2022/10/23 11:24:32;;;;;;;7.70;5.35;;;15.30;99.90;;;;;;5059911;28;20055;-78
2022/10/23 11:38:26;;;;;;;7.47;5.32;;;15.60;99.90;;;;;;4906830;28;20063;-77
2022/10/23 11:41:19;;;;;;;9.57;5.97;;;15.80;99.90;;;;;;5007489;28;20056;-75
2022/10/23 11:43:51;;;;;;;9.00;5.25;;;15.70;99.90;;;;;;5011503;28;20041;-75
2022/10/23 11:46:25;;;;;;;7.40;5.47;;;15.90;99.90;;;;;;5028237;28;20052;-76
2022/10/23 11:48:54;;;;;;;6.60;4.85;;;15.80;99.90;;;;;;5044628;28;20117;-77
2022/10/23 11:51:41;;;;;;;6.50;4.70;;;15.70;99.90;;;;;;5057868;28;20040;-76
2022/10/23 11:54:23;;;;;;;6.95;5.05;;;15.90;99.90;;;;;;5117919;28;20039;-76
2022/10/23 11:57:12;;;;;;;9.48;6.03;;;15.90;99.90;;;;;;5121248;27;20039;-78
2022/10/23 11:59:53;;;;;;;7.85;4.78;;;15.90;99.90;;;;;;5123077;28;20175;-77
2022/10/23 12:02:40;;;;;;;10.00;6.10;;;15.90;99.90;;;;;;5125942;27;20171;-77
2022/10/23 12:05:24;;;;;;;9.40;5.75;;;15.90;99.90;;;;;;5111986;27;20035;-78
2022/10/23 12:08:25;;;;;;;9.15;5.18;;;15.90;99.90;;;;;;5124495;27;20035;-79
2022/10/23 12:13:41;;;;;;;8.07;5.40;;;16.80;99.90;;;;;;5110455;27;20047;-78
2022/10/23 12:16:09;;;;;;;9.32;5.07;;;15.70;99.90;;;;;;5121493;28;20027;-79
2022/10/23 12:19:09;;;;;;;7.53;5.10;;;15.80;99.90;;;;;;5106584;28;20106;-78
2022/10/23 12:21:35;;;;;;;7.25;4.78;;;15.90;99.90;;;;;;5090789;28;20422;-76
2022/10/23 12:24:16;;;;;;;12.80;5.82;;;17.10;99.90;;;;;;5122334;28;20039;-78
2022/10/23 12:26:56;;;;;;;8.65;5.32;;;15.80;99.90;;;;;;5117320;28;20072;-77
2022/10/23 12:29:47;;;;;;;8.15;5.00;;;15.90;99.90;;;;;;5150588;27;20301;-77
2022/10/23 12:32:43;;;;;;;5.97;4.80;;;15.80;99.90;;;;;;5145910;27;20034;-78
2022/10/23 12:35:27;;;;;;;6.97;4.65;;;15.80;99.90;;;;;;5148790;27;20034;-78
2022/10/23 12:38:09;;;;;;;9.57;5.40;;;16.00;99.90;;;;;;5121413;28;20120;-78
2022/10/23 12:40:35;;;;;;;6.45;4.70;;;15.80;99.90;;;;;;5125966;27;20039;-79
2022/10/23 12:43:27;;;;;;;5.55;4.00;;;15.90;99.90;;;;;;5108900;27;20034;-77
2022/10/23 12:45:55;;;;;;;7.32;4.22;;;15.90;99.90;;;;;;5131893;27;20102;-81
2022/10/23 12:52:20;;;;;;;5.18;4.32;;;16.10;99.90;;;;;;5096653;27;20036;-78
2022/10/23 12:54:52;;;;;;;7.25;4.70;;;16.00;99.90;;;;;;5105286;28;20070;-77
2022/10/23 13:02:23;;;;;;;6.47;3.72;;;16.20;99.90;;;;;;4960814;29;20042;-78
2022/10/23 13:04:51;;;;;;;9.15;3.95;;;18.10;99.90;;;;;;4966284;28;20113;-80
2022/10/23 13:07:24;;;;;;;7.30;4.15;;;16.20;99.90;;;;;;5093420;28;20054;-80
2022/10/23 13:09:50;;;;;;;8.57;4.65;;;16.10;99.90;;;;;;5134615;27;20038;-79
2022/10/23 13:12:34;;;;;;;7.18;4.70;;;16.10;99.90;;;;;;5144167;27;20082;-81
2022/10/23 13:15:05;;;;;;;6.05;3.88;;;16.10;99.90;;;;;;5105145;28;20070;-78
2022/10/23 13:17:44;;;;;;;5.93;4.25;;;16.10;99.90;;;;;;5122811;27;20406;-79
2022/10/23 13:20:33;;;;;;;5.30;4.22;;;16.10;99.90;;;;;;5103396;28;20031;-80
2022/10/23 13:23:20;;;;;;;6.57;3.88;;;16.10;99.90;;;;;;5104384;28;20568;-78
2022/10/23 13:25:59;;;;;;;8.68;4.80;;;16.20;99.90;;;;;;5104864;28;20066;-77
2022/10/23 13:28:49;;;;;;;5.35;3.78;;;16.20;99.90;;;;;;5121722;27;20027;-79
2022/10/23 13:31:15;;;;;;;7.30;4.45;;;16.20;99.90;;;;;;5113580;27;20076;-81
2022/10/23 13:33:51;;;;;;;9.15;4.50;;;16.10;99.90;;;;;;5110291;27;20082;-77
2022/10/23 13:36:33;;;;;;;8.63;4.38;;;16.10;99.90;;;;;;5139537;27;20282;-77
2022/10/23 13:39:13;;;;;;;10.50;4.03;;;16.20;99.90;;;;;;5109908;28;20035;-79
2022/10/23 13:41:41;;;;;;;5.78;3.80;;;16.10;99.90;;;;;;5134084;27;20046;-76
2022/10/23 13:44:16;;;;;;;5.50;4.28;;;16.00;99.90;;;;;;5107655;28;20027;-77
2022/10/23 13:46:42;;;;;;;4.72;3.22;;;16.20;99.90;;;;;;5104120;28;20322;-78
2022/10/23 13:49:50;;;;;;;4.78;3.58;;;16.10;99.90;;;;;;5120783;27;20054;-79
2022/10/23 13:52:22;;;;;;;4.82;3.40;;;16.10;99.90;;;;;;5115243;28;20027;-78
2022/10/23 13:54:54;;;;;;;4.75;3.55;;;16.10;99.90;;;;;;5138149;27;20361;-80
2022/10/23 13:57:19;;;;;;;4.00;3.42;;;16.00;99.90;;;;;;5081070;27;20046;-73
2022/10/23 13:59:45;;;;;;;5.63;3.88;;;16.10;99.90;;;;;;5111534;27;20054;-76
2022/10/23 14:02:20;;;;;;;4.82;3.05;;;16.10;99.90;;;;;;5121327;27;20053;-73
2022/10/23 14:04:47;;;;;;;7.05;3.90;;;16.10;99.90;;;;;;5131880;27;20027;-75
2022/10/23 14:07:12;;;;;;;4.10;3.00;;;16.00;99.90;;;;;;5108496;27;20042;-75